General Francisco Javier Mina International Airport
MMTM : now visible

Airfield :











YOU CAN JOIN US ON...

 
LOGIN :

Register | Disclaimer

   EN    FR    IT 

 









Legend :    VFR   Marginal VFR   IFR   Intensive IFR   Very Intensive IFR
Visi :
Ceiling :
>= 8 km
>= 3000ft
5 to 8 km
1000 to 3000 ft
1500m to 5 km
500 to 1000 ft
800 to 1500m
200 to 500 ft
< 800m
< 200 ft
Symbols :   Thunderstorms  Fog  Heavy snow  Heavy precipitations  Wind > 20 kt






- Airport Elevation : 80 ft
- IATA code : TAM


MMTM - General Francisco Javier Mina International

CURRENT METAR :
  • 120040Z E01008KT 8SM FEW030 BKN070 18/11 A3033 RMK 8/570

EXPIRED METARs :
  • 112346Z E02008KT 8SM FEW030 BKN070 19/11 A3031 RMK SLP263 57002 945 8/570 CI
  • 112243Z E01012KT 10SM BKN070 20/12 A3029 RMK 8/070 CI
  • 112144Z E01012KT 10SM FEW050 SCT070 20/11 A3030 RMK 8/570 CI

TAF AMD TAF MMTM
Valid from the 11 at 20:00 until the 12 at 18:00 UTC


111958Z 1120/1218 02012KT P6SM SCT050 OVC070
BECMG 1121/1122 02008KT
FM120200 01008KT P6SM BKN070
BECMG 1205/1206 32006KT
FM121000 29006KT 6SM HZ SCT015 BKN070



MET'MAP, your aeronautical weather chart ! - Copyright ORBIFLY December 2007 - Disclaimer

ORBIFLY MET'MAP TEAM :

Programming & Development : Alexandra Zaïnal
Concept & original design : Baudouin d'Aumeries
Assistance for programming : Marc-Olivier Méhu
Technical & hardware support : Manuel Goepfert

Contact : metmap@orbifly.com




SOURCES & CREDITS :

   NOAA       Earth
Advisory